sensor_id;sensor_type;location;lat;lon;timestamp;P1;durP1;ratioP1;P2;durP2;ratioP2
6358;SDS011;3212;51.460;11.868;2023-06-19T00:02:47;7.20;;;6.00;;
6358;SDS011;3212;51.460;11.868;2023-06-19T00:06:11;7.30;;;6.50;;
6358;SDS011;3212;51.460;11.868;2023-06-19T00:09:33;7.90;;;6.10;;
6358;SDS011;3212;51.460;11.868;2023-06-19T00:12:57;7.67;;;6.00;;
6358;SDS011;3212;51.460;11.868;2023-06-19T00:16:20;6.47;;;5.77;;
6358;SDS011;3212;51.460;11.868;2023-06-19T00:19:43;6.87;;;5.90;;
6358;SDS011;3212;51.460;11.868;2023-06-19T00:23:06;8.83;;;6.53;;
6358;SDS011;3212;51.460;11.868;2023-06-19T00:26:30;8.80;;;6.53;;
6358;SDS011;3212;51.460;11.868;2023-06-19T00:29:53;7.37;;;6.17;;
6358;SDS011;3212;51.460;11.868;2023-06-19T00:33:17;10.30;;;6.60;;
6358;SDS011;3212;51.460;11.868;2023-06-19T00:36:47;8.70;;;6.20;;
6358;SDS011;3212;51.460;11.868;2023-06-19T00:43:41;8.30;;;5.90;;
6358;SDS011;3212;51.460;11.868;2023-06-19T00:47:04;7.60;;;6.53;;
6358;SDS011;3212;51.460;11.868;2023-06-19T00:50:27;7.73;;;6.00;;
6358;SDS011;3212;51.460;11.868;2023-06-19T00:53:49;7.60;;;6.37;;
6358;SDS011;3212;51.460;11.868;2023-06-19T00:57:13;8.67;;;6.40;;
6358;SDS011;3212;51.460;11.868;2023-06-19T01:00:36;7.67;;;6.37;;
6358;SDS011;3212;51.460;11.868;2023-06-19T01:03:59;6.90;;;6.17;;
6358;SDS011;3212;51.460;11.868;2023-06-19T01:07:29;8.23;;;6.80;;
6358;SDS011;3212;51.460;11.868;2023-06-19T01:10:51;8.23;;;6.80;;
6358;SDS011;3212;51.460;11.868;2023-06-19T01:14:15;7.67;;;6.03;;
6358;SDS011;3212;51.460;11.868;2023-06-19T01:17:37;7.97;;;6.83;;
6358;SDS011;3212;51.460;11.868;2023-06-19T01:24:31;8.80;;;6.90;;
6358;SDS011;3212;51.460;11.868;2023-06-19T01:27:53;8.50;;;7.57;;
6358;SDS011;3212;51.460;11.868;2023-06-19T01:31:19;9.03;;;7.03;;
6358;SDS011;3212;51.460;11.868;2023-06-19T01:34:40;9.43;;;7.20;;
6358;SDS011;3212;51.460;11.868;2023-06-19T01:38:03;8.30;;;7.10;;
6358;SDS011;3212;51.460;11.868;2023-06-19T01:41:27;11.47;;;8.00;;
6358;SDS011;3212;51.460;11.868;2023-06-19T01:44:49;9.23;;;7.63;;
6358;SDS011;3212;51.460;11.868;2023-06-19T01:48:13;10.07;;;7.50;;
6358;SDS011;3212;51.460;11.868;2023-06-19T01:51:36;11.40;;;8.10;;
6358;SDS011;3212;51.460;11.868;2023-06-19T01:54:59;9.50;;;8.00;;
6358;SDS011;3212;51.460;11.868;2023-06-19T01:58:22;9.83;;;7.40;;
6358;SDS011;3212;51.460;11.868;2023-06-19T02:01:47;11.17;;;8.40;;
6358;SDS011;3212;51.460;11.868;2023-06-19T02:05:11;8.70;;;7.57;;
6358;SDS011;3212;51.460;11.868;2023-06-19T02:08:34;10.47;;;8.23;;
6358;SDS011;3212;51.460;11.868;2023-06-19T02:11:57;10.40;;;7.53;;
6358;SDS011;3212;51.460;11.868;2023-06-19T02:15:19;10.27;;;8.30;;
6358;SDS011;3212;51.460;11.868;2023-06-19T02:18:42;9.37;;;8.00;;
6358;SDS011;3212;51.460;11.868;2023-06-19T02:22:07;9.80;;;8.13;;
6358;SDS011;3212;51.460;11.868;2023-06-19T02:25:30;11.90;;;8.30;;
6358;SDS011;3212;51.460;11.868;2023-06-19T02:28:52;12.60;;;8.80;;
6358;SDS011;3212;51.460;11.868;2023-06-19T02:32:15;10.70;;;8.43;;
6358;SDS011;3212;51.460;11.868;2023-06-19T02:35:39;11.30;;;8.87;;
6358;SDS011;3212;51.460;11.868;2023-06-19T02:39:05;10.23;;;8.10;;
6358;SDS011;3212;51.460;11.868;2023-06-19T02:42:28;10.77;;;7.93;;
6358;SDS011;3212;51.460;11.868;2023-06-19T02:45:50;11.47;;;8.40;;
6358;SDS011;3212;51.460;11.868;2023-06-19T02:49:14;12.13;;;8.53;;
6358;SDS011;3212;51.460;11.868;2023-06-19T02:52:37;11.93;;;7.97;;
6358;SDS011;3212;51.460;11.868;2023-06-19T02:56:01;13.17;;;7.97;;
6358;SDS011;3212;51.460;11.868;2023-06-19T02:59:25;9.70;;;8.27;;
6358;SDS011;3212;51.460;11.868;2023-06-19T03:02:48;11.82;;;8.60;;
6358;SDS011;3212;51.460;11.868;2023-06-19T03:06:10;12.50;;;8.63;;
6358;SDS011;3212;51.460;11.868;2023-06-19T03:09:33;11.40;;;9.10;;
6358;SDS011;3212;51.460;11.868;2023-06-19T03:12:56;10.33;;;8.60;;
6358;SDS011;3212;51.460;11.868;2023-06-19T03:16:19;12.20;;;8.60;;
6358;SDS011;3212;51.460;11.868;2023-06-19T03:19:42;11.50;;;9.00;;
6358;SDS011;3212;51.460;11.868;2023-06-19T03:23:10;10.93;;;8.20;;
6358;SDS011;3212;51.460;11.868;2023-06-19T03:26:34;11.80;;;8.20;;
6358;SDS011;3212;51.460;11.868;2023-06-19T03:30:01;13.00;;;9.13;;
6358;SDS011;3212;51.460;11.868;2023-06-19T03:33:24;10.03;;;8.43;;
6358;SDS011;3212;51.460;11.868;2023-06-19T03:36:51;11.67;;;8.90;;
6358;SDS011;3212;51.460;11.868;2023-06-19T03:40:13;11.53;;;8.70;;
6358;SDS011;3212;51.460;11.868;2023-06-19T03:43:37;9.90;;;7.77;;
6358;SDS011;3212;51.460;11.868;2023-06-19T03:46:59;11.23;;;8.10;;
6358;SDS011;3212;51.460;11.868;2023-06-19T03:50:22;9.70;;;8.30;;
6358;SDS011;3212;51.460;11.868;2023-06-19T03:53:45;11.00;;;9.20;;
6358;SDS011;3212;51.460;11.868;2023-06-19T03:57:09;11.03;;;8.10;;
6358;SDS011;3212;51.460;11.868;2023-06-19T04:00:32;10.30;;;7.57;;
6358;SDS011;3212;51.460;11.868;2023-06-19T04:03:54;9.53;;;8.50;;
6358;SDS011;3212;51.460;11.868;2023-06-19T04:07:17;10.87;;;8.00;;
6358;SDS011;3212;51.460;11.868;2023-06-19T04:10:41;10.77;;;8.33;;
6358;SDS011;3212;51.460;11.868;2023-06-19T04:14:03;13.10;;;8.53;;
6358;SDS011;3212;51.460;11.868;2023-06-19T04:17:25;10.07;;;8.20;;
6358;SDS011;3212;51.460;11.868;2023-06-19T04:20:49;10.07;;;8.37;;
6358;SDS011;3212;51.460;11.868;2023-06-19T04:24:12;11.57;;;9.07;;
6358;SDS011;3212;51.460;11.868;2023-06-19T04:27:35;11.07;;;8.37;;
6358;SDS011;3212;51.460;11.868;2023-06-19T04:30:58;14.00;;;9.03;;
6358;SDS011;3212;51.460;11.868;2023-06-19T04:34:21;10.90;;;8.37;;
6358;SDS011;3212;51.460;11.868;2023-06-19T04:37:44;9.50;;;7.93;;
6358;SDS011;3212;51.460;11.868;2023-06-19T04:41:07;12.80;;;9.03;;
6358;SDS011;3212;51.460;11.868;2023-06-19T04:44:29;13.53;;;9.00;;
6358;SDS011;3212;51.460;11.868;2023-06-19T04:47:52;10.47;;;8.40;;
6358;SDS011;3212;51.460;11.868;2023-06-19T04:51:15;13.50;;;8.00;;
6358;SDS011;3212;51.460;11.868;2023-06-19T04:54:38;17.30;;;8.60;;
6358;SDS011;3212;51.460;11.868;2023-06-19T04:58:01;13.47;;;9.10;;
6358;SDS011;3212;51.460;11.868;2023-06-19T05:01:25;11.03;;;8.33;;
6358;SDS011;3212;51.460;11.868;2023-06-19T05:04:47;10.60;;;8.40;;
6358;SDS011;3212;51.460;11.868;2023-06-19T05:08:09;10.93;;;8.30;;
6358;SDS011;3212;51.460;11.868;2023-06-19T05:11:32;18.47;;;8.63;;
6358;SDS011;3212;51.460;11.868;2023-06-19T05:14:55;10.30;;;7.80;;
6358;SDS011;3212;51.460;11.868;2023-06-19T05:18:18;11.07;;;8.60;;
6358;SDS011;3212;51.460;11.868;2023-06-19T05:21:40;9.53;;;7.90;;
6358;SDS011;3212;51.460;11.868;2023-06-19T05:25:04;12.27;;;8.43;;
6358;SDS011;3212;51.460;11.868;2023-06-19T05:28:27;11.70;;;8.37;;
6358;SDS011;3212;51.460;11.868;2023-06-19T05:31:55;10.73;;;8.30;;
6358;SDS011;3212;51.460;11.868;2023-06-19T05:35:23;12.53;;;8.70;;
6358;SDS011;3212;51.460;11.868;2023-06-19T05:38:47;12.67;;;9.00;;
6358;SDS011;3212;51.460;11.868;2023-06-19T05:42:10;10.17;;;7.53;;
6358;SDS011;3212;51.460;11.868;2023-06-19T05:45:34;12.20;;;9.00;;
6358;SDS011;3212;51.460;11.868;2023-06-19T05:48:57;16.23;;;8.87;;
6358;SDS011;3212;51.460;11.868;2023-06-19T05:52:19;12.40;;;8.30;;
6358;SDS011;3212;51.460;11.868;2023-06-19T05:55:42;10.90;;;8.80;;
6358;SDS011;3212;51.460;11.868;2023-06-19T05:59:05;18.90;;;10.03;;
6358;SDS011;3212;51.460;11.868;2023-06-19T06:02:29;18.00;;;9.37;;
6358;SDS011;3212;51.460;11.868;2023-06-19T06:05:51;13.73;;;9.93;;
6358;SDS011;3212;51.460;11.868;2023-06-19T06:09:14;15.63;;;9.20;;
6358;SDS011;3212;51.460;11.868;2023-06-19T06:12:38;12.10;;;9.07;;
6358;SDS011;3212;51.460;11.868;2023-06-19T06:16:01;12.30;;;9.60;;
6358;SDS011;3212;51.460;11.868;2023-06-19T06:19:24;22.03;;;10.13;;
6358;SDS011;3212;51.460;11.868;2023-06-19T06:22:47;12.00;;;8.97;;
6358;SDS011;3212;51.460;11.868;2023-06-19T06:26:09;14.90;;;8.53;;
6358;SDS011;3212;51.460;11.868;2023-06-19T06:29:32;15.83;;;9.60;;
6358;SDS011;3212;51.460;11.868;2023-06-19T06:32:55;15.37;;;9.77;;
6358;SDS011;3212;51.460;11.868;2023-06-19T06:36:18;16.27;;;10.27;;
6358;SDS011;3212;51.460;11.868;2023-06-19T06:39:41;15.30;;;9.33;;
6358;SDS011;3212;51.460;11.868;2023-06-19T06:43:04;12.93;;;8.87;;
6358;SDS011;3212;51.460;11.868;2023-06-19T06:46:26;12.50;;;9.30;;
6358;SDS011;3212;51.460;11.868;2023-06-19T06:49:50;13.60;;;9.70;;
6358;SDS011;3212;51.460;11.868;2023-06-19T06:53:19;13.10;;;9.30;;
6358;SDS011;3212;51.460;11.868;2023-06-19T06:56:43;13.00;;;10.07;;
6358;SDS011;3212;51.460;11.868;2023-06-19T07:00:06;13.83;;;10.17;;
6358;SDS011;3212;51.460;11.868;2023-06-19T07:03:29;14.97;;;10.07;;
6358;SDS011;3212;51.460;11.868;2023-06-19T07:06:53;12.97;;;10.07;;
6358;SDS011;3212;51.460;11.868;2023-06-19T07:10:16;16.50;;;11.17;;
6358;SDS011;3212;51.460;11.868;2023-06-19T07:13:38;14.20;;;10.87;;
6358;SDS011;3212;51.460;11.868;2023-06-19T07:17:01;17.70;;;11.33;;
6358;SDS011;3212;51.460;11.868;2023-06-19T07:20:26;19.63;;;10.87;;
6358;SDS011;3212;51.460;11.868;2023-06-19T07:23:48;17.33;;;10.50;;
6358;SDS011;3212;51.460;11.868;2023-06-19T07:27:12;15.10;;;11.13;;
6358;SDS011;3212;51.460;11.868;2023-06-19T07:30:35;15.80;;;11.40;;
6358;SDS011;3212;51.460;11.868;2023-06-19T07:33:58;16.13;;;10.40;;
6358;SDS011;3212;51.460;11.868;2023-06-19T07:37:20;16.63;;;10.83;;
6358;SDS011;3212;51.460;11.868;2023-06-19T07:40:43;17.40;;;10.57;;
6358;SDS011;3212;51.460;11.868;2023-06-19T07:44:06;16.13;;;10.00;;
6358;SDS011;3212;51.460;11.868;2023-06-19T07:47:29;15.07;;;10.70;;
6358;SDS011;3212;51.460;11.868;2023-06-19T07:50:53;20.00;;;11.53;;
6358;SDS011;3212;51.460;11.868;2023-06-19T07:54:15;15.97;;;11.43;;
6358;SDS011;3212;51.460;11.868;2023-06-19T07:57:38;15.17;;;10.80;;
6358;SDS011;3212;51.460;11.868;2023-06-19T08:01:01;15.53;;;11.60;;
6358;SDS011;3212;51.460;11.868;2023-06-19T08:04:24;15.27;;;11.20;;
6358;SDS011;3212;51.460;11.868;2023-06-19T08:07:46;13.77;;;10.30;;
6358;SDS011;3212;51.460;11.868;2023-06-19T08:11:09;13.50;;;10.73;;
6358;SDS011;3212;51.460;11.868;2023-06-19T08:14:32;14.33;;;9.90;;
6358;SDS011;3212;51.460;11.868;2023-06-19T08:17:55;11.50;;;9.93;;
6358;SDS011;3212;51.460;11.868;2023-06-19T08:21:23;12.17;;;9.37;;
6358;SDS011;3212;51.460;11.868;2023-06-19T08:24:51;10.93;;;9.70;;
6358;SDS011;3212;51.460;11.868;2023-06-19T08:28:14;9.97;;;8.80;;
6358;SDS011;3212;51.460;11.868;2023-06-19T08:31:37;11.30;;;8.93;;
6358;SDS011;3212;51.460;11.868;2023-06-19T08:35:00;10.67;;;8.67;;
6358;SDS011;3212;51.460;11.868;2023-06-19T08:38:30;8.93;;;8.03;;
6358;SDS011;3212;51.460;11.868;2023-06-19T08:41:52;11.07;;;7.93;;
6358;SDS011;3212;51.460;11.868;2023-06-19T08:45:16;10.80;;;8.97;;
6358;SDS011;3212;51.460;11.868;2023-06-19T08:48:39;9.47;;;8.23;;
6358;SDS011;3212;51.460;11.868;2023-06-19T08:52:02;10.57;;;9.30;;
6358;SDS011;3212;51.460;11.868;2023-06-19T08:55:27;10.83;;;8.47;;
6358;SDS011;3212;51.460;11.868;2023-06-19T08:58:50;9.97;;;8.97;;
6358;SDS011;3212;51.460;11.868;2023-06-19T09:02:13;9.67;;;7.90;;
6358;SDS011;3212;51.460;11.868;2023-06-19T09:05:36;10.20;;;8.20;;
6358;SDS011;3212;51.460;11.868;2023-06-19T09:08:59;8.77;;;7.60;;
6358;SDS011;3212;51.460;11.868;2023-06-19T09:12:23;9.10;;;8.20;;
6358;SDS011;3212;51.460;11.868;2023-06-19T09:15:46;11.50;;;9.07;;
6358;SDS011;3212;51.460;11.868;2023-06-19T09:19:09;10.37;;;8.63;;
6358;SDS011;3212;51.460;11.868;2023-06-19T09:22:31;9.73;;;7.87;;
6358;SDS011;3212;51.460;11.868;2023-06-19T09:25:56;11.57;;;9.37;;
6358;SDS011;3212;51.460;11.868;2023-06-19T09:29:18;10.57;;;8.73;;
6358;SDS011;3212;51.460;11.868;2023-06-19T09:32:41;10.53;;;8.60;;
6358;SDS011;3212;51.460;11.868;2023-06-19T09:36:04;9.90;;;8.90;;
6358;SDS011;3212;51.460;11.868;2023-06-19T09:39:27;10.17;;;8.33;;
6358;SDS011;3212;51.460;11.868;2023-06-19T09:42:50;10.03;;;8.33;;
6358;SDS011;3212;51.460;11.868;2023-06-19T09:46:14;9.53;;;8.53;;
6358;SDS011;3212;51.460;11.868;2023-06-19T09:49:36;10.00;;;8.50;;
6358;SDS011;3212;51.460;11.868;2023-06-19T09:52:59;9.10;;;8.20;;
6358;SDS011;3212;51.460;11.868;2023-06-19T09:56:21;9.60;;;8.70;;
6358;SDS011;3212;51.460;11.868;2023-06-19T09:59:45;9.67;;;8.57;;
6358;SDS011;3212;51.460;11.868;2023-06-19T10:03:11;9.87;;;8.87;;
6358;SDS011;3212;51.460;11.868;2023-06-19T10:10:05;16.00;;;8.47;;
6358;SDS011;3212;51.460;11.868;2023-06-19T10:13:31;12.70;;;8.90;;
6358;SDS011;3212;51.460;11.868;2023-06-19T10:16:54;9.10;;;8.20;;
6358;SDS011;3212;51.460;11.868;2023-06-19T10:20:25;9.87;;;8.27;;
6358;SDS011;3212;51.460;11.868;2023-06-19T10:23:53;10.83;;;8.47;;
6358;SDS011;3212;51.460;11.868;2023-06-19T10:27:20;9.50;;;8.60;;
6358;SDS011;3212;51.460;11.868;2023-06-19T10:30:42;9.53;;;8.63;;
6358;SDS011;3212;51.460;11.868;2023-06-19T10:34:05;9.37;;;8.33;;
6358;SDS011;3212;51.460;11.868;2023-06-19T10:37:32;9.50;;;8.50;;
6358;SDS011;3212;51.460;11.868;2023-06-19T10:40:54;11.57;;;8.63;;
6358;SDS011;3212;51.460;11.868;2023-06-19T10:44:16;9.53;;;8.63;;
6358;SDS011;3212;51.460;11.868;2023-06-19T10:47:39;10.03;;;8.87;;
6358;SDS011;3212;51.460;11.868;2023-06-19T10:51:01;9.90;;;8.27;;
6358;SDS011;3212;51.460;11.868;2023-06-19T10:54:25;9.20;;;8.30;;
6358;SDS011;3212;51.460;11.868;2023-06-19T10:57:48;9.13;;;8.23;;
6358;SDS011;3212;51.460;11.868;2023-06-19T11:01:10;10.23;;;9.20;;
6358;SDS011;3212;51.460;11.868;2023-06-19T11:04:36;9.38;;;8.48;;
6358;SDS011;3212;51.460;11.868;2023-06-19T11:07:58;11.07;;;8.50;;
6358;SDS011;3212;51.460;11.868;2023-06-19T11:11:20;8.80;;;8.00;;
6358;SDS011;3212;51.460;11.868;2023-06-19T11:14:43;8.83;;;7.90;;
6358;SDS011;3212;51.460;11.868;2023-06-19T11:18:07;8.40;;;7.60;;
6358;SDS011;3212;51.460;11.868;2023-06-19T11:21:31;8.70;;;7.90;;
6358;SDS011;3212;51.460;11.868;2023-06-19T11:24:56;8.90;;;8.10;;
6358;SDS011;3212;51.460;11.868;2023-06-19T11:28:18;8.23;;;7.43;;
6358;SDS011;3212;51.460;11.868;2023-06-19T11:31:41;8.20;;;7.50;;
6358;SDS011;3212;51.460;11.868;2023-06-19T11:38:36;9.03;;;7.70;;
6358;SDS011;3212;51.460;11.868;2023-06-19T11:42:02;9.07;;;8.17;;
6358;SDS011;3212;51.460;11.868;2023-06-19T11:45:27;8.37;;;7.60;;
6358;SDS011;3212;51.460;11.868;2023-06-19T11:48:50;8.88;;;8.05;;
6358;SDS011;3212;51.460;11.868;2023-06-19T11:52:13;9.40;;;8.50;;
6358;SDS011;3212;51.460;11.868;2023-06-19T11:55:36;9.23;;;8.37;;
6358;SDS011;3212;51.460;11.868;2023-06-19T11:58:58;10.63;;;8.20;;
6358;SDS011;3212;51.460;11.868;2023-06-19T12:02:22;8.90;;;8.07;;
6358;SDS011;3212;51.460;11.868;2023-06-19T12:05:45;10.60;;;8.68;;
6358;SDS011;3212;51.460;11.868;2023-06-19T12:09:08;9.90;;;8.90;;
6358;SDS011;3212;51.460;11.868;2023-06-19T12:12:31;9.00;;;8.10;;
6358;SDS011;3212;51.460;11.868;2023-06-19T12:15:54;8.73;;;7.83;;
6358;SDS011;3212;51.460;11.868;2023-06-19T12:19:17;9.00;;;8.20;;
6358;SDS011;3212;51.460;11.868;2023-06-19T12:22:40;8.63;;;7.87;;
6358;SDS011;3212;51.460;11.868;2023-06-19T12:26:03;9.10;;;8.25;;
6358;SDS011;3212;51.460;11.868;2023-06-19T12:29:25;8.47;;;7.77;;
6358;SDS011;3212;51.460;11.868;2023-06-19T12:32:47;8.23;;;7.53;;
6358;SDS011;3212;51.460;11.868;2023-06-19T12:36:10;8.27;;;7.57;;
6358;SDS011;3212;51.460;11.868;2023-06-19T12:39:35;8.93;;;8.05;;
6358;SDS011;3212;51.460;11.868;2023-06-19T12:42:58;8.20;;;7.40;;
6358;SDS011;3212;51.460;11.868;2023-06-19T12:46:20;8.40;;;7.43;;
6358;SDS011;3212;51.460;11.868;2023-06-19T12:49:43;8.00;;;7.30;;
6358;SDS011;3212;51.460;11.868;2023-06-19T12:53:06;7.87;;;7.18;;
6358;SDS011;3212;51.460;11.868;2023-06-19T12:56:29;7.62;;;7.03;;
6358;SDS011;3212;51.460;11.868;2023-06-19T12:59:51;7.80;;;7.20;;
6358;SDS011;3212;51.460;11.868;2023-06-19T13:03:15;8.65;;;6.87;;
6358;SDS011;3212;51.460;11.868;2023-06-19T13:06:38;7.40;;;6.80;;
6358;SDS011;3212;51.460;11.868;2023-06-19T13:10:01;7.00;;;6.32;;
6358;SDS011;3212;51.460;11.868;2023-06-19T13:13:23;6.50;;;5.90;;
6358;SDS011;3212;51.460;11.868;2023-06-19T13:16:47;6.50;;;5.57;;
6358;SDS011;3212;51.460;11.868;2023-06-19T13:20:10;5.40;;;5.00;;
6358;SDS011;3212;51.460;11.868;2023-06-19T13:23:32;5.60;;;5.10;;
6358;SDS011;3212;51.460;11.868;2023-06-19T13:26:57;5.53;;;5.03;;
6358;SDS011;3212;51.460;11.868;2023-06-19T13:30:20;5.50;;;5.00;;
6358;SDS011;3212;51.460;11.868;2023-06-19T13:33:43;5.60;;;5.17;;
6358;SDS011;3212;51.460;11.868;2023-06-19T13:37:06;6.20;;;5.70;;
6358;SDS011;3212;51.460;11.868;2023-06-19T13:40:29;6.40;;;5.80;;
6358;SDS011;3212;51.460;11.868;2023-06-19T13:43:52;6.20;;;5.60;;
6358;SDS011;3212;51.460;11.868;2023-06-19T13:47:14;6.93;;;6.33;;
6358;SDS011;3212;51.460;11.868;2023-06-19T13:50:38;6.53;;;5.93;;
6358;SDS011;3212;51.460;11.868;2023-06-19T13:54:01;6.50;;;5.90;;
6358;SDS011;3212;51.460;11.868;2023-06-19T13:57:23;7.30;;;6.60;;
6358;SDS011;3212;51.460;11.868;2023-06-19T14:00:46;6.47;;;5.87;;
6358;SDS011;3212;51.460;11.868;2023-06-19T14:04:09;5.87;;;5.37;;
6358;SDS011;3212;51.460;11.868;2023-06-19T14:07:32;6.47;;;5.97;;
6358;SDS011;3212;51.460;11.868;2023-06-19T14:10:56;6.73;;;6.10;;
6358;SDS011;3212;51.460;11.868;2023-06-19T14:14:18;7.07;;;6.20;;
6358;SDS011;3212;51.460;11.868;2023-06-19T14:17:40;6.60;;;6.00;;
6358;SDS011;3212;51.460;11.868;2023-06-19T14:21:04;7.30;;;6.60;;
6358;SDS011;3212;51.460;11.868;2023-06-19T14:24:27;6.73;;;6.13;;
6358;SDS011;3212;51.460;11.868;2023-06-19T14:27:50;7.63;;;6.93;;
6358;SDS011;3212;51.460;11.868;2023-06-19T14:31:13;6.70;;;6.10;;
6358;SDS011;3212;51.460;11.868;2023-06-19T14:34:36;7.03;;;6.40;;
6358;SDS011;3212;51.460;11.868;2023-06-19T14:37:59;7.23;;;6.57;;
6358;SDS011;3212;51.460;11.868;2023-06-19T14:41:22;10.20;;;6.30;;
6358;SDS011;3212;51.460;11.868;2023-06-19T14:44:45;7.40;;;6.60;;
6358;SDS011;3212;51.460;11.868;2023-06-19T14:48:08;6.87;;;6.20;;
6358;SDS011;3212;51.460;11.868;2023-06-19T14:51:30;7.93;;;6.50;;
6358;SDS011;3212;51.460;11.868;2023-06-19T14:54:54;7.30;;;6.57;;
6358;SDS011;3212;51.460;11.868;2023-06-19T14:58:17;6.90;;;6.30;;
6358;SDS011;3212;51.460;11.868;2023-06-19T15:01:39;8.47;;;6.87;;
6358;SDS011;3212;51.460;11.868;2023-06-19T15:05:02;7.17;;;6.47;;
6358;SDS011;3212;51.460;11.868;2023-06-19T15:08:26;6.93;;;6.23;;
6358;SDS011;3212;51.460;11.868;2023-06-19T15:11:49;6.43;;;5.83;;
6358;SDS011;3212;51.460;11.868;2023-06-19T15:15:13;7.30;;;6.70;;
6358;SDS011;3212;51.460;11.868;2023-06-19T15:18:36;7.13;;;6.53;;
6358;SDS011;3212;51.460;11.868;2023-06-19T15:21:59;7.93;;;7.13;;
6358;SDS011;3212;51.460;11.868;2023-06-19T15:25:22;8.67;;;6.77;;
6358;SDS011;3212;51.460;11.868;2023-06-19T15:28:45;7.57;;;6.80;;
6358;SDS011;3212;51.460;11.868;2023-06-19T15:32:09;7.10;;;6.40;;
6358;SDS011;3212;51.460;11.868;2023-06-19T15:35:33;6.90;;;6.30;;
6358;SDS011;3212;51.460;11.868;2023-06-19T15:38:55;7.63;;;6.93;;
6358;SDS011;3212;51.460;11.868;2023-06-19T15:42:17;6.90;;;6.30;;
6358;SDS011;3212;51.460;11.868;2023-06-19T15:45:41;7.57;;;6.70;;
6358;SDS011;3212;51.460;11.868;2023-06-19T15:49:03;6.83;;;6.17;;
6358;SDS011;3212;51.460;11.868;2023-06-19T15:52:26;7.20;;;6.60;;
6358;SDS011;3212;51.460;11.868;2023-06-19T15:55:50;7.30;;;6.40;;
6358;SDS011;3212;51.460;11.868;2023-06-19T15:59:13;7.17;;;6.53;;
6358;SDS011;3212;51.460;11.868;2023-06-19T16:02:35;8.27;;;6.90;;
6358;SDS011;3212;51.460;11.868;2023-06-19T16:05:58;7.10;;;6.50;;
6358;SDS011;3212;51.460;11.868;2023-06-19T16:09:22;8.27;;;7.17;;
6358;SDS011;3212;51.460;11.868;2023-06-19T16:12:45;7.30;;;6.60;;
6358;SDS011;3212;51.460;11.868;2023-06-19T16:16:09;7.93;;;6.90;;
6358;SDS011;3212;51.460;11.868;2023-06-19T16:19:32;10.13;;;6.83;;
6358;SDS011;3212;51.460;11.868;2023-06-19T16:22:55;8.00;;;7.20;;
6358;SDS011;3212;51.460;11.868;2023-06-19T16:26:22;7.63;;;5.97;;
6358;SDS011;3212;51.460;11.868;2023-06-19T16:29:46;7.55;;;6.10;;
6358;SDS011;3212;51.460;11.868;2023-06-19T16:33:08;7.20;;;6.50;;
6358;SDS011;3212;51.460;11.868;2023-06-19T16:36:31;7.27;;;6.60;;
6358;SDS011;3212;51.460;11.868;2023-06-19T16:39:53;6.97;;;6.37;;
6358;SDS011;3212;51.460;11.868;2023-06-19T16:43:17;7.70;;;6.43;;
6358;SDS011;3212;51.460;11.868;2023-06-19T16:46:40;7.53;;;6.87;;
6358;SDS011;3212;51.460;11.868;2023-06-19T16:50:03;8.93;;;7.67;;
6358;SDS011;3212;51.460;11.868;2023-06-19T16:53:27;8.30;;;7.47;;
6358;SDS011;3212;51.460;11.868;2023-06-19T16:56:51;11.30;;;7.03;;
6358;SDS011;3212;51.460;11.868;2023-06-19T17:00:15;10.70;;;6.80;;
6358;SDS011;3212;51.460;11.868;2023-06-19T17:03:38;13.63;;;7.80;;
6358;SDS011;3212;51.460;11.868;2023-06-19T17:07:01;7.37;;;5.90;;
6358;SDS011;3212;51.460;11.868;2023-06-19T17:10:24;5.30;;;4.60;;
6358;SDS011;3212;51.460;11.868;2023-06-19T17:13:47;9.90;;;5.77;;
6358;SDS011;3212;51.460;11.868;2023-06-19T17:17:10;7.13;;;6.00;;
6358;SDS011;3212;51.460;11.868;2023-06-19T17:20:33;7.70;;;6.60;;
6358;SDS011;3212;51.460;11.868;2023-06-19T17:23:56;9.37;;;6.73;;
6358;SDS011;3212;51.460;11.868;2023-06-19T17:27:18;8.77;;;7.13;;
6358;SDS011;3212;51.460;11.868;2023-06-19T17:30:41;11.53;;;7.57;;
6358;SDS011;3212;51.460;11.868;2023-06-19T17:34:04;9.10;;;7.53;;
6358;SDS011;3212;51.460;11.868;2023-06-19T17:37:27;10.50;;;7.10;;
6358;SDS011;3212;51.460;11.868;2023-06-19T17:40:52;8.57;;;7.40;;
6358;SDS011;3212;51.460;11.868;2023-06-19T17:44:14;9.27;;;6.93;;
6358;SDS011;3212;51.460;11.868;2023-06-19T17:47:37;10.80;;;7.50;;
6358;SDS011;3212;51.460;11.868;2023-06-19T17:50:59;10.77;;;7.40;;
6358;SDS011;3212;51.460;11.868;2023-06-19T17:54:21;10.13;;;7.40;;
6358;SDS011;3212;51.460;11.868;2023-06-19T17:57:46;12.47;;;7.70;;
6358;SDS011;3212;51.460;11.868;2023-06-19T18:01:14;8.27;;;6.60;;
6358;SDS011;3212;51.460;11.868;2023-06-19T18:04:37;10.70;;;7.10;;
6358;SDS011;3212;51.460;11.868;2023-06-19T18:08:00;8.00;;;7.00;;
6358;SDS011;3212;51.460;11.868;2023-06-19T18:11:23;21.70;;;7.70;;
6358;SDS011;3212;51.460;11.868;2023-06-19T18:14:45;10.83;;;7.20;;
6358;SDS011;3212;51.460;11.868;2023-06-19T18:18:08;12.93;;;7.10;;
6358;SDS011;3212;51.460;11.868;2023-06-19T18:21:31;9.67;;;6.60;;
6358;SDS011;3212;51.460;11.868;2023-06-19T18:24:53;10.03;;;7.37;;
6358;SDS011;3212;51.460;11.868;2023-06-19T18:28:15;9.30;;;7.00;;
6358;SDS011;3212;51.460;11.868;2023-06-19T18:31:38;12.83;;;7.00;;
6358;SDS011;3212;51.460;11.868;2023-06-19T18:35:00;8.30;;;6.93;;
6358;SDS011;3212;51.460;11.868;2023-06-19T18:38:23;8.67;;;7.30;;
6358;SDS011;3212;51.460;11.868;2023-06-19T18:41:46;7.60;;;6.30;;
6358;SDS011;3212;51.460;11.868;2023-06-19T18:45:08;7.70;;;6.80;;
6358;SDS011;3212;51.460;11.868;2023-06-19T18:48:32;9.03;;;6.93;;
6358;SDS011;3212;51.460;11.868;2023-06-19T18:51:54;10.23;;;6.67;;
6358;SDS011;3212;51.460;11.868;2023-06-19T18:55:16;7.37;;;6.67;;
6358;SDS011;3212;51.460;11.868;2023-06-19T18:58:39;7.27;;;5.87;;
6358;SDS011;3212;51.460;11.868;2023-06-19T19:02:02;6.93;;;6.30;;
6358;SDS011;3212;51.460;11.868;2023-06-19T19:05:26;7.20;;;6.50;;
6358;SDS011;3212;51.460;11.868;2023-06-19T19:08:48;8.00;;;6.47;;
6358;SDS011;3212;51.460;11.868;2023-06-19T19:12:11;8.07;;;6.30;;
6358;SDS011;3212;51.460;11.868;2023-06-19T19:15:33;7.50;;;6.70;;
6358;SDS011;3212;51.460;11.868;2023-06-19T19:18:55;7.60;;;6.80;;
6358;SDS011;3212;51.460;11.868;2023-06-19T19:22:20;8.70;;;6.37;;
6358;SDS011;3212;51.460;11.868;2023-06-19T19:25:42;7.87;;;7.07;;
6358;SDS011;3212;51.460;11.868;2023-06-19T19:29:04;8.83;;;7.50;;
6358;SDS011;3212;51.460;11.868;2023-06-19T19:32:28;8.23;;;7.30;;
6358;SDS011;3212;51.460;11.868;2023-06-19T19:35:51;9.23;;;7.03;;
6358;SDS011;3212;51.460;11.868;2023-06-19T19:39:13;9.20;;;7.50;;
6358;SDS011;3212;51.460;11.868;2023-06-19T19:42:36;9.10;;;7.50;;
6358;SDS011;3212;51.460;11.868;2023-06-19T19:46:03;9.80;;;7.37;;
6358;SDS011;3212;51.460;11.868;2023-06-19T19:49:25;11.20;;;7.67;;
6358;SDS011;3212;51.460;11.868;2023-06-19T19:52:47;9.00;;;7.00;;
6358;SDS011;3212;51.460;11.868;2023-06-19T19:56:11;8.00;;;7.10;;
6358;SDS011;3212;51.460;11.868;2023-06-19T19:59:33;8.23;;;7.20;;
6358;SDS011;3212;51.460;11.868;2023-06-19T20:02:56;8.30;;;7.50;;
6358;SDS011;3212;51.460;11.868;2023-06-19T20:06:18;9.53;;;8.03;;
6358;SDS011;3212;51.460;11.868;2023-06-19T20:09:41;10.07;;;7.60;;
6358;SDS011;3212;51.460;11.868;2023-06-19T20:13:04;10.50;;;7.40;;
6358;SDS011;3212;51.460;11.868;2023-06-19T20:16:26;9.40;;;8.00;;
6358;SDS011;3212;51.460;11.868;2023-06-19T20:19:49;8.70;;;7.80;;
6358;SDS011;3212;51.460;11.868;2023-06-19T20:23:12;11.43;;;8.40;;
6358;SDS011;3212;51.460;11.868;2023-06-19T20:26:35;9.27;;;7.70;;
6358;SDS011;3212;51.460;11.868;2023-06-19T20:29:57;9.90;;;7.23;;
6358;SDS011;3212;51.460;11.868;2023-06-19T20:33:20;8.27;;;6.63;;
6358;SDS011;3212;51.460;11.868;2023-06-19T20:36:43;7.60;;;6.90;;
6358;SDS011;3212;51.460;11.868;2023-06-19T20:40:06;7.70;;;7.00;;
6358;SDS011;3212;51.460;11.868;2023-06-19T20:43:29;7.03;;;6.10;;
6358;SDS011;3212;51.460;11.868;2023-06-19T20:46:51;7.60;;;6.83;;
6358;SDS011;3212;51.460;11.868;2023-06-19T20:50:14;7.63;;;6.00;;